sensor_id;sensor_type;location;lat;lon;timestamp;pressure;altitude;pressure_sealevel;temperature;humidity
15272;BME280;7737;51.578;7.268;2023-05-01T00:02:16;101286.56;;;8.96;100.00
15272;BME280;7737;51.578;7.268;2023-05-01T00:04:44;101290.00;;;8.98;100.00
15272;BME280;7737;51.578;7.268;2023-05-01T00:07:11;101275.16;;;8.92;100.00
15272;BME280;7737;51.578;7.268;2023-05-01T00:09:37;101276.41;;;8.56;100.00
15272;BME280;7737;51.578;7.268;2023-05-01T00:12:04;101272.03;;;8.55;100.00
15272;BME280;7737;51.578;7.268;2023-05-01T00:14:30;101268.06;;;8.68;100.00
15272;BME280;7737;51.578;7.268;2023-05-01T00:16:57;101266.84;;;8.50;100.00
15272;BME280;7737;51.578;7.268;2023-05-01T00:19:23;101271.88;;;8.60;100.00
15272;BME280;7737;51.578;7.268;2023-05-01T00:21:51;101262.59;;;8.46;100.00
15272;BME280;7737;51.578;7.268;2023-05-01T00:24:18;101255.78;;;8.38;100.00
15272;BME280;7737;51.578;7.268;2023-05-01T00:26:44;101249.78;;;8.04;100.00
15272;BME280;7737;51.578;7.268;2023-05-01T00:29:11;101248.19;;;8.27;100.00
15272;BME280;7737;51.578;7.268;2023-05-01T00:31:37;101251.00;;;8.21;100.00
15272;BME280;7737;51.578;7.268;2023-05-01T00:34:05;101246.88;;;8.13;100.00
15272;BME280;7737;51.578;7.268;2023-05-01T00:36:32;101242.03;;;7.97;100.00
15272;BME280;7737;51.578;7.268;2023-05-01T00:39:00;101238.63;;;8.22;100.00
15272;BME280;7737;51.578;7.268;2023-05-01T00:41:26;101228.63;;;8.31;100.00
15272;BME280;7737;51.578;7.268;2023-05-01T00:43:53;101233.72;;;8.37;100.00
15272;BME280;7737;51.578;7.268;2023-05-01T00:46:19;101228.44;;;8.37;100.00
15272;BME280;7737;51.578;7.268;2023-05-01T00:48:46;101225.25;;;8.54;100.00
15272;BME280;7737;51.578;7.268;2023-05-01T00:51:13;101214.84;;;8.48;100.00
15272;BME280;7737;51.578;7.268;2023-05-01T00:53:40;101214.66;;;8.52;100.00
15272;BME280;7737;51.578;7.268;2023-05-01T00:56:08;101210.56;;;8.44;100.00
15272;BME280;7737;51.578;7.268;2023-05-01T00:58:36;101202.91;;;8.35;100.00
15272;BME280;7737;51.578;7.268;2023-05-01T01:01:03;101202.25;;;8.28;100.00
15272;BME280;7737;51.578;7.268;2023-05-01T01:03:30;101195.03;;;8.33;100.00
15272;BME280;7737;51.578;7.268;2023-05-01T01:06:03;101196.34;;;8.19;100.00
15272;BME280;7737;51.578;7.268;2023-05-01T01:08:33;101196.31;;;8.20;100.00
15272;BME280;7737;51.578;7.268;2023-05-01T01:11:16;101191.19;;;8.14;100.00
15272;BME280;7737;51.578;7.268;2023-05-01T01:13:51;101190.28;;;8.15;100.00
15272;BME280;7737;51.578;7.268;2023-05-01T01:16:23;101189.03;;;7.99;100.00
15272;BME280;7737;51.578;7.268;2023-05-01T01:18:57;101186.97;;;8.09;100.00
15272;BME280;7737;51.578;7.268;2023-05-01T01:21:31;101185.91;;;8.14;100.00
15272;BME280;7737;51.578;7.268;2023-05-01T01:24:29;101187.69;;;8.14;100.00
15272;BME280;7737;51.578;7.268;2023-05-01T01:27:38;101174.63;;;8.08;100.00
15272;BME280;7737;51.578;7.268;2023-05-01T01:30:17;101182.69;;;8.05;100.00
15272;BME280;7737;51.578;7.268;2023-05-01T01:33:17;101172.09;;;8.05;100.00
15272;BME280;7737;51.578;7.268;2023-05-01T01:35:52;101173.72;;;8.09;100.00
15272;BME280;7737;51.578;7.268;2023-05-01T01:38:25;101170.34;;;8.04;100.00
15272;BME280;7737;51.578;7.268;2023-05-01T01:40:57;101168.84;;;7.96;100.00
15272;BME280;7737;51.578;7.268;2023-05-01T01:43:25;101166.50;;;8.14;100.00
15272;BME280;7737;51.578;7.268;2023-05-01T01:45:59;101162.69;;;7.94;100.00
15272;BME280;7737;51.578;7.268;2023-05-01T01:48:30;101164.59;;;7.91;100.00
15272;BME280;7737;51.578;7.268;2023-05-01T01:51:00;101164.16;;;7.77;100.00
15272;BME280;7737;51.578;7.268;2023-05-01T01:53:32;101155.94;;;7.86;100.00
15272;BME280;7737;51.578;7.268;2023-05-01T01:56:02;101154.19;;;7.85;100.00
15272;BME280;7737;51.578;7.268;2023-05-01T01:58:31;101154.59;;;7.73;100.00
15272;BME280;7737;51.578;7.268;2023-05-01T02:00:58;101148.41;;;7.72;100.00
15272;BME280;7737;51.578;7.268;2023-05-01T02:03:25;101158.19;;;7.70;100.00
15272;BME280;7737;51.578;7.268;2023-05-01T02:05:53;101150.09;;;7.75;100.00
15272;BME280;7737;51.578;7.268;2023-05-01T02:08:23;101145.78;;;7.72;100.00
15272;BME280;7737;51.578;7.268;2023-05-01T02:10:51;101145.88;;;7.69;100.00
15272;BME280;7737;51.578;7.268;2023-05-01T02:13:25;101143.41;;;7.63;100.00
15272;BME280;7737;51.578;7.268;2023-05-01T02:15:52;101139.94;;;7.61;100.00
15272;BME280;7737;51.578;7.268;2023-05-01T02:18:20;101135.28;;;7.69;100.00
15272;BME280;7737;51.578;7.268;2023-05-01T02:20:47;101133.78;;;7.61;100.00
15272;BME280;7737;51.578;7.268;2023-05-01T02:23:14;101127.25;;;7.72;100.00
15272;BME280;7737;51.578;7.268;2023-05-01T02:25:44;101127.19;;;7.74;100.00
15272;BME280;7737;51.578;7.268;2023-05-01T02:28:12;101116.44;;;7.78;100.00
15272;BME280;7737;51.578;7.268;2023-05-01T02:30:38;101117.84;;;7.90;100.00
15272;BME280;7737;51.578;7.268;2023-05-01T02:33:05;101114.56;;;7.83;100.00
15272;BME280;7737;51.578;7.268;2023-05-01T02:35:38;101118.97;;;7.83;100.00
15272;BME280;7737;51.578;7.268;2023-05-01T02:38:05;101111.78;;;7.86;100.00
15272;BME280;7737;51.578;7.268;2023-05-01T02:40:32;101109.66;;;7.97;100.00
15272;BME280;7737;51.578;7.268;2023-05-01T02:43:04;101104.81;;;7.56;100.00
15272;BME280;7737;51.578;7.268;2023-05-01T02:45:34;101106.72;;;7.79;100.00
15272;BME280;7737;51.578;7.268;2023-05-01T02:48:04;101096.50;;;7.96;100.00
15272;BME280;7737;51.578;7.268;2023-05-01T02:50:32;101096.94;;;7.82;100.00
15272;BME280;7737;51.578;7.268;2023-05-01T02:53:00;101092.16;;;7.93;100.00
15272;BME280;7737;51.578;7.268;2023-05-01T02:55:27;101087.66;;;7.95;100.00
15272;BME280;7737;51.578;7.268;2023-05-01T02:57:57;101092.69;;;8.05;100.00
15272;BME280;7737;51.578;7.268;2023-05-01T03:00:24;101089.88;;;8.09;100.00
15272;BME280;7737;51.578;7.268;2023-05-01T03:02:51;101088.19;;;8.07;100.00
15272;BME280;7737;51.578;7.268;2023-05-01T03:05:17;101086.06;;;8.18;100.00
15272;BME280;7737;51.578;7.268;2023-05-01T03:07:45;101082.47;;;8.19;100.00
15272;BME280;7737;51.578;7.268;2023-05-01T03:10:12;101069.47;;;8.13;100.00
15272;BME280;7737;51.578;7.268;2023-05-01T03:12:39;101077.97;;;8.21;100.00
15272;BME280;7737;51.578;7.268;2023-05-01T03:15:07;101065.47;;;8.26;100.00
15272;BME280;7737;51.578;7.268;2023-05-01T03:17:35;101061.91;;;8.27;100.00
15272;BME280;7737;51.578;7.268;2023-05-01T03:20:01;101065.34;;;8.30;100.00
15272;BME280;7737;51.578;7.268;2023-05-01T03:22:30;101066.44;;;8.23;100.00
15272;BME280;7737;51.578;7.268;2023-05-01T03:24:57;101058.53;;;8.22;100.00
15272;BME280;7737;51.578;7.268;2023-05-01T03:27:23;101065.09;;;8.10;100.00
15272;BME280;7737;51.578;7.268;2023-05-01T03:29:50;101062.97;;;8.21;100.00
15272;BME280;7737;51.578;7.268;2023-05-01T03:32:17;101054.00;;;8.25;100.00
15272;BME280;7737;51.578;7.268;2023-05-01T03:34:44;101056.31;;;8.36;100.00
15272;BME280;7737;51.578;7.268;2023-05-01T03:37:11;101046.69;;;8.33;100.00
15272;BME280;7737;51.578;7.268;2023-05-01T03:39:37;101047.25;;;8.17;100.00
15272;BME280;7737;51.578;7.268;2023-05-01T03:42:04;101046.03;;;8.27;100.00
15272;BME280;7737;51.578;7.268;2023-05-01T03:44:31;101044.78;;;8.37;100.00
15272;BME280;7737;51.578;7.268;2023-05-01T03:46:57;101036.97;;;8.34;100.00
15272;BME280;7737;51.578;7.268;2023-05-01T03:49:24;101038.56;;;8.38;100.00
15272;BME280;7737;51.578;7.268;2023-05-01T03:51:52;101033.19;;;8.15;100.00
15272;BME280;7737;51.578;7.268;2023-05-01T03:54:18;101029.47;;;8.20;100.00
15272;BME280;7737;51.578;7.268;2023-05-01T03:56:45;101038.16;;;8.24;100.00
15272;BME280;7737;51.578;7.268;2023-05-01T03:59:11;101034.69;;;8.22;100.00
15272;BME280;7737;51.578;7.268;2023-05-01T04:01:38;101036.31;;;8.27;100.00
15272;BME280;7737;51.578;7.268;2023-05-01T04:04:05;101030.91;;;8.30;100.00
15272;BME280;7737;51.578;7.268;2023-05-01T04:06:32;101020.06;;;8.12;100.00
15272;BME280;7737;51.578;7.268;2023-05-01T04:09:00;101031.88;;;8.02;100.00
15272;BME280;7737;51.578;7.268;2023-05-01T04:11:26;101034.63;;;7.98;100.00
15272;BME280;7737;51.578;7.268;2023-05-01T04:13:53;101035.41;;;8.02;100.00
15272;BME280;7737;51.578;7.268;2023-05-01T04:16:19;101031.00;;;8.27;100.00
15272;BME280;7737;51.578;7.268;2023-05-01T04:18:46;101030.22;;;8.24;100.00
15272;BME280;7737;51.578;7.268;2023-05-01T04:21:12;101025.56;;;8.06;100.00
15272;BME280;7737;51.578;7.268;2023-05-01T04:23:41;101031.50;;;8.12;100.00
15272;BME280;7737;51.578;7.268;2023-05-01T04:26:09;101025.44;;;8.35;100.00
15272;BME280;7737;51.578;7.268;2023-05-01T04:28:36;101028.06;;;8.36;100.00
15272;BME280;7737;51.578;7.268;2023-05-01T04:31:02;101021.28;;;8.28;100.00
15272;BME280;7737;51.578;7.268;2023-05-01T04:33:29;101019.22;;;8.36;100.00
15272;BME280;7737;51.578;7.268;2023-05-01T04:35:55;101019.22;;;8.36;100.00
15272;BME280;7737;51.578;7.268;2023-05-01T04:38:22;101019.84;;;8.18;100.00
15272;BME280;7737;51.578;7.268;2023-05-01T04:40:48;101024.63;;;8.33;100.00
15272;BME280;7737;51.578;7.268;2023-05-01T04:43:16;101016.91;;;8.27;100.00
15272;BME280;7737;51.578;7.268;2023-05-01T04:45:42;101016.38;;;8.16;100.00
15272;BME280;7737;51.578;7.268;2023-05-01T04:48:09;101014.56;;;8.18;100.00
15272;BME280;7737;51.578;7.268;2023-05-01T04:50:36;101012.28;;;8.07;100.00
15272;BME280;7737;51.578;7.268;2023-05-01T04:53:02;101019.53;;;8.27;100.00
15272;BME280;7737;51.578;7.268;2023-05-01T04:55:29;101009.72;;;8.30;100.00
15272;BME280;7737;51.578;7.268;2023-05-01T04:57:55;101017.50;;;8.35;100.00
15272;BME280;7737;51.578;7.268;2023-05-01T05:00:24;101019.94;;;8.41;100.00
15272;BME280;7737;51.578;7.268;2023-05-01T05:02:52;101013.69;;;8.42;100.00
15272;BME280;7737;51.578;7.268;2023-05-01T05:05:18;101014.88;;;8.58;100.00
15272;BME280;7737;51.578;7.268;2023-05-01T05:07:45;101015.25;;;8.47;100.00
15272;BME280;7737;51.578;7.268;2023-05-01T05:10:12;101010.50;;;8.57;100.00
15272;BME280;7737;51.578;7.268;2023-05-01T05:12:38;101005.84;;;8.64;100.00
15272;BME280;7737;51.578;7.268;2023-05-01T05:15:06;101013.78;;;8.64;100.00
15272;BME280;7737;51.578;7.268;2023-05-01T05:17:34;101014.31;;;8.73;100.00
15272;BME280;7737;51.578;7.268;2023-05-01T05:20:00;101012.94;;;8.86;100.00
15272;BME280;7737;51.578;7.268;2023-05-01T05:22:27;101005.22;;;8.80;100.00
15272;BME280;7737;51.578;7.268;2023-05-01T05:24:53;101005.88;;;8.87;100.00
15272;BME280;7737;51.578;7.268;2023-05-01T05:27:20;101008.09;;;8.97;100.00
15272;BME280;7737;51.578;7.268;2023-05-01T05:29:47;101007.72;;;9.06;100.00
15272;BME280;7737;51.578;7.268;2023-05-01T05:32:13;101000.31;;;8.93;100.00
15272;BME280;7737;51.578;7.268;2023-05-01T05:34:41;101003.53;;;9.01;100.00
15272;BME280;7737;51.578;7.268;2023-05-01T05:37:08;101002.19;;;9.12;100.00
15272;BME280;7737;51.578;7.268;2023-05-01T05:39:34;101001.59;;;9.28;100.00
15272;BME280;7737;51.578;7.268;2023-05-01T05:42:01;100992.41;;;9.36;100.00
15272;BME280;7737;51.578;7.268;2023-05-01T05:44:28;100993.69;;;9.48;100.00
15272;BME280;7737;51.578;7.268;2023-05-01T05:46:55;100989.47;;;9.64;100.00
15272;BME280;7737;51.578;7.268;2023-05-01T05:49:22;100982.47;;;9.63;100.00
15272;BME280;7737;51.578;7.268;2023-05-01T05:51:50;100972.66;;;9.85;100.00
15272;BME280;7737;51.578;7.268;2023-05-01T05:54:16;100978.38;;;9.96;100.00
15272;BME280;7737;51.578;7.268;2023-05-01T05:56:43;100973.25;;;9.92;100.00
15272;BME280;7737;51.578;7.268;2023-05-01T05:59:09;100966.84;;;9.97;100.00
15272;BME280;7737;51.578;7.268;2023-05-01T06:01:36;100973.47;;;10.07;100.00
15272;BME280;7737;51.578;7.268;2023-05-01T06:04:04;100964.72;;;10.25;100.00
15272;BME280;7737;51.578;7.268;2023-05-01T06:06:31;100961.53;;;10.37;100.00
15272;BME280;7737;51.578;7.268;2023-05-01T06:08:59;100957.25;;;10.54;100.00
15272;BME280;7737;51.578;7.268;2023-05-01T06:11:26;100953.38;;;10.61;100.00
15272;BME280;7737;51.578;7.268;2023-05-01T06:13:52;100942.16;;;10.54;100.00
15272;BME280;7737;51.578;7.268;2023-05-01T06:16:19;100949.28;;;10.91;100.00
15272;BME280;7737;51.578;7.268;2023-05-01T06:18:45;100942.78;;;11.15;100.00
15272;BME280;7737;51.578;7.268;2023-05-01T06:21:12;100931.22;;;11.16;100.00
15272;BME280;7737;51.578;7.268;2023-05-01T06:23:38;100931.06;;;11.19;100.00
15272;BME280;7737;51.578;7.268;2023-05-01T06:26:06;100925.34;;;11.45;100.00
15272;BME280;7737;51.578;7.268;2023-05-01T06:28:33;100930.50;;;11.66;100.00
15272;BME280;7737;51.578;7.268;2023-05-01T06:30:59;100919.78;;;11.67;100.00
15272;BME280;7737;51.578;7.268;2023-05-01T06:33:26;100919.38;;;11.40;100.00
15272;BME280;7737;51.578;7.268;2023-05-01T06:35:52;100919.38;;;11.57;100.00
15272;BME280;7737;51.578;7.268;2023-05-01T06:38:20;100921.31;;;11.73;100.00
15272;BME280;7737;51.578;7.268;2023-05-01T06:40:47;100910.34;;;11.79;100.00
15272;BME280;7737;51.578;7.268;2023-05-01T06:43:15;100913.72;;;11.82;100.00
15272;BME280;7737;51.578;7.268;2023-05-01T06:45:42;100902.41;;;11.94;100.00
15272;BME280;7737;51.578;7.268;2023-05-01T06:48:08;100898.72;;;11.97;100.00
15272;BME280;7737;51.578;7.268;2023-05-01T06:50:35;100900.44;;;12.15;100.00
15272;BME280;7737;51.578;7.268;2023-05-01T06:53:02;100897.78;;;12.15;100.00
15272;BME280;7737;51.578;7.268;2023-05-01T06:55:28;100903.00;;;12.16;100.00
15272;BME280;7737;51.578;7.268;2023-05-01T06:57:55;100906.38;;;12.20;100.00
15272;BME280;7737;51.578;7.268;2023-05-01T07:00:23;100909.81;;;12.22;100.00
15272;BME280;7737;51.578;7.268;2023-05-01T07:02:50;100905.84;;;12.46;100.00
15272;BME280;7737;51.578;7.268;2023-05-01T07:05:17;100899.50;;;12.64;100.00
15272;BME280;7737;51.578;7.268;2023-05-01T07:07:43;100892.78;;;12.57;100.00
15272;BME280;7737;51.578;7.268;2023-05-01T07:10:10;100885.47;;;12.76;100.00
15272;BME280;7737;51.578;7.268;2023-05-01T07:12:36;100893.47;;;12.61;100.00
15272;BME280;7737;51.578;7.268;2023-05-01T07:15:03;100878.25;;;12.78;100.00
15272;BME280;7737;51.578;7.268;2023-05-01T07:17:31;100890.75;;;12.78;100.00
15272;BME280;7737;51.578;7.268;2023-05-01T07:19:58;100889.00;;;12.93;100.00
15272;BME280;7737;51.578;7.268;2023-05-01T07:22:25;100882.47;;;12.98;100.00
15272;BME280;7737;51.578;7.268;2023-05-01T07:24:53;100887.53;;;13.03;100.00
15272;BME280;7737;51.578;7.268;2023-05-01T07:27:19;100884.81;;;12.89;100.00
15272;BME280;7737;51.578;7.268;2023-05-01T07:29:46;100878.09;;;13.13;100.00
15272;BME280;7737;51.578;7.268;2023-05-01T07:32:12;100871.88;;;13.28;100.00
15272;BME280;7737;51.578;7.268;2023-05-01T07:34:40;100870.69;;;13.18;100.00
15272;BME280;7737;51.578;7.268;2023-05-01T07:37:06;100863.28;;;13.23;100.00
15272;BME280;7737;51.578;7.268;2023-05-01T07:39:33;100870.66;;;13.63;100.00
15272;BME280;7737;51.578;7.268;2023-05-01T07:41:59;100873.50;;;13.60;100.00
15272;BME280;7737;51.578;7.268;2023-05-01T07:44:26;100855.63;;;13.47;100.00
15272;BME280;7737;51.578;7.268;2023-05-01T07:46:52;100850.78;;;13.53;100.00
15272;BME280;7737;51.578;7.268;2023-05-01T07:49:19;100851.97;;;13.77;100.00
15272;BME280;7737;51.578;7.268;2023-05-01T07:51:47;100850.34;;;13.75;100.00
15272;BME280;7737;51.578;7.268;2023-05-01T07:54:13;100843.59;;;14.12;100.00
15272;BME280;7737;51.578;7.268;2023-05-01T07:56:41;100838.16;;;13.99;100.00
15272;BME280;7737;51.578;7.268;2023-05-01T07:59:07;100830.44;;;13.94;100.00
15272;BME280;7737;51.578;7.268;2023-05-01T08:01:35;100824.69;;;13.86;100.00
15272;BME280;7737;51.578;7.268;2023-05-01T08:04:01;100828.63;;;14.09;100.00
15272;BME280;7737;51.578;7.268;2023-05-01T08:06:29;100828.72;;;14.50;100.00
15272;BME280;7737;51.578;7.268;2023-05-01T08:08:57;100825.66;;;14.56;100.00
15272;BME280;7737;51.578;7.268;2023-05-01T08:11:23;100817.84;;;14.39;100.00
15272;BME280;7737;51.578;7.268;2023-05-01T08:13:50;100808.28;;;14.49;100.00
15272;BME280;7737;51.578;7.268;2023-05-01T08:16:17;100806.03;;;14.70;100.00
15272;BME280;7737;51.578;7.268;2023-05-01T08:18:44;100799.06;;;14.94;100.00
15272;BME280;7737;51.578;7.268;2023-05-01T08:21:11;100791.66;;;14.85;100.00
15272;BME280;7737;51.578;7.268;2023-05-01T08:23:38;100789.72;;;14.87;100.00
15272;BME280;7737;51.578;7.268;2023-05-01T08:26:05;100789.66;;;15.40;100.00
15272;BME280;7737;51.578;7.268;2023-05-01T08:28:33;100771.41;;;15.20;100.00
15272;BME280;7737;51.578;7.268;2023-05-01T08:31:00;100771.16;;;15.10;100.00
15272;BME280;7737;51.578;7.268;2023-05-01T08:33:27;100770.59;;;15.45;100.00
15272;BME280;7737;51.578;7.268;2023-05-01T08:35:54;100773.84;;;15.62;100.00
15272;BME280;7737;51.578;7.268;2023-05-01T08:38:21;100759.81;;;15.84;100.00
15272;BME280;7737;51.578;7.268;2023-05-01T08:40:50;100770.44;;;15.86;100.00
15272;BME280;7737;51.578;7.268;2023-05-01T08:43:19;100771.91;;;16.15;100.00
15272;BME280;7737;51.578;7.268;2023-05-01T08:45:46;100762.22;;;16.25;100.00
15272;BME280;7737;51.578;7.268;2023-05-01T08:48:15;100755.72;;;16.40;100.00
15272;BME280;7737;51.578;7.268;2023-05-01T08:50:45;100752.25;;;16.51;100.00
15272;BME280;7737;51.578;7.268;2023-05-01T08:53:12;100745.34;;;16.72;100.00
15272;BME280;7737;51.578;7.268;2023-05-01T08:55:42;100738.53;;;16.55;100.00
15272;BME280;7737;51.578;7.268;2023-05-01T08:58:12;100729.63;;;17.13;100.00
15272;BME280;7737;51.578;7.268;2023-05-01T09:00:40;100700.88;;;17.37;100.00
15272;BME280;7737;51.578;7.268;2023-05-01T09:03:10;100689.16;;;17.38;100.00
15272;BME280;7737;51.578;7.268;2023-05-01T09:05:37;100684.81;;;17.59;100.00
15272;BME280;7737;51.578;7.268;2023-05-01T09:08:04;100694.03;;;17.33;100.00
15272;BME280;7737;51.578;7.268;2023-05-01T09:10:32;100679.56;;;17.69;99.18
15272;BME280;7737;51.578;7.268;2023-05-01T09:13:00;100664.03;;;17.95;97.36
15272;BME280;7737;51.578;7.268;2023-05-01T09:15:28;100663.22;;;18.37;96.68
15272;BME280;7737;51.578;7.268;2023-05-01T09:18:01;100661.06;;;18.20;96.17
15272;BME280;7737;51.578;7.268;2023-05-01T09:20:28;100667.22;;;17.89;96.01
15272;BME280;7737;51.578;7.268;2023-05-01T09:22:55;100663.91;;;17.85;94.54
15272;BME280;7737;51.578;7.268;2023-05-01T09:25:22;100648.72;;;18.60;94.04
15272;BME280;7737;51.578;7.268;2023-05-01T09:27:49;100650.94;;;18.44;93.74
15272;BME280;7737;51.578;7.268;2023-05-01T09:30:29;100664.06;;;18.49;93.74
15272;BME280;7737;51.578;7.268;2023-05-01T09:33:08;100668.41;;;18.07;95.22
15272;BME280;7737;51.578;7.268;2023-05-01T09:35:51;100654.50;;;18.56;92.83
15272;BME280;7737;51.578;7.268;2023-05-01T09:38:19;100624.88;;;18.45;89.68
15272;BME280;7737;51.578;7.268;2023-05-01T09:40:46;100637.63;;;18.74;90.98
15272;BME280;7737;51.578;7.268;2023-05-01T09:43:17;100635.41;;;18.79;89.90
15272;BME280;7737;51.578;7.268;2023-05-01T09:46:00;100623.06;;;18.98;89.08
15272;BME280;7737;51.578;7.268;2023-05-01T09:48:29;100624.25;;;19.05;88.84
15272;BME280;7737;51.578;7.268;2023-05-01T09:50:55;100630.34;;;19.07;88.91
15272;BME280;7737;51.578;7.268;2023-05-01T09:53:34;100607.94;;;18.85;86.70
15272;BME280;7737;51.578;7.268;2023-05-01T09:56:02;100624.91;;;18.76;88.00
15272;BME280;7737;51.578;7.268;2023-05-01T09:58:29;100624.81;;;18.67;87.17
15272;BME280;7737;51.578;7.268;2023-05-01T10:00:55;100631.94;;;18.89;88.58
15272;BME280;7737;51.578;7.268;2023-05-01T10:03:22;100599.09;;;19.25;85.29
15272;BME280;7737;51.578;7.268;2023-05-01T10:05:50;100596.53;;;19.74;85.00
15272;BME280;7737;51.578;7.268;2023-05-01T10:08:16;100562.19;;;19.46;80.97
15272;BME280;7737;51.578;7.268;2023-05-01T10:10:43;100595.94;;;19.71;84.95
15272;BME280;7737;51.578;7.268;2023-05-01T10:13:12;100559.94;;;20.00;81.71
15272;BME280;7737;51.578;7.268;2023-05-01T10:15:39;100576.88;;;20.60;82.18
15272;BME280;7737;51.578;7.268;2023-05-01T10:18:08;100551.75;;;20.40;80.42
15272;BME280;7737;51.578;7.268;2023-05-01T10:20:35;100532.78;;;19.92;76.95
15272;BME280;7737;51.578;7.268;2023-05-01T10:23:03;100546.94;;;19.75;79.06
15272;BME280;7737;51.578;7.268;2023-05-01T10:25:30;100530.09;;;20.02;76.80
15272;BME280;7737;51.578;7.268;2023-05-01T10:27:58;100562.25;;;20.53;80.43
15272;BME280;7737;51.578;7.268;2023-05-01T10:30:25;100563.69;;;20.57;79.21
15272;BME280;7737;51.578;7.268;2023-05-01T10:32:51;100543.63;;;20.31;77.02
15272;BME280;7737;51.578;7.268;2023-05-01T10:35:22;100509.81;;;20.46;73.87
15272;BME280;7737;51.578;7.268;2023-05-01T10:37:57;100525.81;;;20.76;74.96
15272;BME280;7737;51.578;7.268;2023-05-01T10:40:46;100463.34;;;20.42;69.42
15272;BME280;7737;51.578;7.268;2023-05-01T10:43:18;100494.50;;;21.57;72.37
15272;BME280;7737;51.578;7.268;2023-05-01T10:45:46;100489.28;;;21.73;72.05
15272;BME280;7737;51.578;7.268;2023-05-01T10:48:53;100491.63;;;20.94;71.90
15272;BME280;7737;51.578;7.268;2023-05-01T10:51:21;100440.03;;;21.42;67.58
15272;BME280;7737;51.578;7.268;2023-05-01T10:53:49;100432.78;;;21.88;66.57
15272;BME280;7737;51.578;7.268;2023-05-01T10:56:45;100434.47;;;21.71;66.12
15272;BME280;7737;51.578;7.268;2023-05-01T10:59:12;100443.84;;;21.94;67.61
15272;BME280;7737;51.578;7.268;2023-05-01T11:01:39;100396.44;;;21.00;60.46
15272;BME280;7737;51.578;7.268;2023-05-01T11:04:30;100432.53;;;21.81;63.48
15272;BME280;7737;51.578;7.268;2023-05-01T11:07:14;100461.00;;;21.03;65.78
15272;BME280;7737;51.578;7.268;2023-05-01T11:09:43;100459.53;;;21.46;64.99
15272;BME280;7737;51.578;7.268;2023-05-01T11:12:13;100474.78;;;22.09;66.54
15272;BME280;7737;51.578;7.268;2023-05-01T11:15:04;100459.34;;;21.30;63.98
15272;BME280;7737;51.578;7.268;2023-05-01T11:17:45;100417.69;;;21.22;61.53
15272;BME280;7737;51.578;7.268;2023-05-01T11:20:13;100456.31;;;21.15;63.89
15272;BME280;7737;51.578;7.268;2023-05-01T11:22:58;100448.53;;;20.56;64.01
15272;BME280;7737;51.578;7.268;2023-05-01T11:25:26;100454.63;;;20.68;64.19
15272;BME280;7737;51.578;7.268;2023-05-01T11:27:58;100465.56;;;20.66;64.64
15272;BME280;7737;51.578;7.268;2023-05-01T11:30:25;100463.19;;;20.90;64.23
15272;BME280;7737;51.578;7.268;2023-05-01T11:32:51;100461.28;;;20.63;64.37
15272;BME280;7737;51.578;7.268;2023-05-01T11:35:19;100455.16;;;20.71;63.54
15272;BME280;7737;51.578;7.268;2023-05-01T11:37:46;100470.16;;;20.46;64.63
15272;BME280;7737;51.578;7.268;2023-05-01T11:40:19;100438.47;;;20.48;61.71
15272;BME280;7737;51.578;7.268;2023-05-01T11:42:46;100439.56;;;20.65;62.24
15272;BME280;7737;51.578;7.268;2023-05-01T11:45:14;100477.09;;;20.58;64.38
15272;BME280;7737;51.578;7.268;2023-05-01T11:47:41;100500.56;;;20.39;66.59
15272;BME280;7737;51.578;7.268;2023-05-01T11:50:08;100490.78;;;20.38;65.64
15272;BME280;7737;51.578;7.268;2023-05-01T11:52:42;100504.53;;;20.44;67.10
15272;BME280;7737;51.578;7.268;2023-05-01T11:55:09;100509.25;;;20.42;67.74
15272;BME280;7737;51.578;7.268;2023-05-01T11:57:44;100488.59;;;20.70;65.34
15272;BME280;7737;51.578;7.268;2023-05-01T12:00:14;100491.69;;;20.75;66.44
15272;BME280;7737;51.578;7.268;2023-05-01T12:02:54;100442.06;;;20.76;62.76
15272;BME280;7737;51.578;7.268;2023-05-01T12:05:22;100470.31;;;20.91;65.12
15272;BME280;7737;51.578;7.268;2023-05-01T12:07:48;100488.69;;;21.24;66.15
15272;BME280;7737;51.578;7.268;2023-05-01T12:10:15;100453.25;;;21.28;63.17
15272;BME280;7737;51.578;7.268;2023-05-01T12:12:43;100419.03;;;20.72;61.40
15272;BME280;7737;51.578;7.268;2023-05-01T12:15:10;100466.41;;;21.13;64.57
15272;BME280;7737;51.578;7.268;2023-05-01T12:17:38;100471.47;;;20.79;65.06
15272;BME280;7737;51.578;7.268;2023-05-01T12:20:07;100450.19;;;21.03;63.52
15272;BME280;7737;51.578;7.268;2023-05-01T12:22:34;100450.69;;;20.89;62.79
15272;BME280;7737;51.578;7.268;2023-05-01T12:25:00;100471.59;;;20.97;64.58
15272;BME280;7737;51.578;7.268;2023-05-01T12:27:28;100428.25;;;20.79;61.82
15272;BME280;7737;51.578;7.268;2023-05-01T12:29:57;100466.88;;;20.89;65.66
15272;BME280;7737;51.578;7.268;2023-05-01T12:32:29;100473.97;;;21.00;65.81
15272;BME280;7737;51.578;7.268;2023-05-01T12:34:59;100466.72;;;21.00;64.67
15272;BME280;7737;51.578;7.268;2023-05-01T12:37:30;100462.91;;;20.93;64.53
15272;BME280;7737;51.578;7.268;2023-05-01T12:39:56;100482.53;;;21.32;65.72
15272;BME280;7737;51.578;7.268;2023-05-01T12:42:24;100456.25;;;21.24;63.89
15272;BME280;7737;51.578;7.268;2023-05-01T12:44:57;100464.34;;;21.52;64.46
15272;BME280;7737;51.578;7.268;2023-05-01T12:47:24;100455.00;;;21.46;64.06
15272;BME280;7737;51.578;7.268;2023-05-01T12:50:02;100416.78;;;21.32;61.52
15272;BME280;7737;51.578;7.268;2023-05-01T12:52:29;100446.91;;;21.37;63.79
15272;BME280;7737;51.578;7.268;2023-05-01T12:55:01;100413.38;;;21.92;61.19
15272;BME280;7737;51.578;7.268;2023-05-01T12:57:27;100399.56;;;22.03;60.20
15272;BME280;7737;51.578;7.268;2023-05-01T12:59:58;100437.75;;;21.92;63.81
15272;BME280;7737;51.578;7.268;2023-05-01T13:02:29;100424.41;;;21.81;61.90
15272;BME280;7737;51.578;7.268;2023-05-01T13:05:06;100394.97;;;20.79;60.37
15272;BME280;7737;51.578;7.268;2023-05-01T13:07:34;100386.03;;;21.33;59.18